Terminal Aerodrome Forecast
Issued by NWS

Home | Current Version | Previous Version | Text Only | Print | Product List | Glossary On
Versions: 1 2 3 4 5 6 7 8 9 10 11 12 13 14 15 16 17 18 19 20 21 22
829
FTUS43 KDTX 111805 AAA
TAFDET
TAF AMD
KDET 111805Z 1118/1218 15005KT 3SM -SN OVC012
     FM111830 17006KT 6SM -SHSN SCT015 BKN025 OVC050
     FM112100 16005KT 4SM -SN FEW012 OVC020
     FM112300 14005KT 2SM -SN SCT009 OVC015
      TEMPO 1123/1201 3/4SM -SN SCT006 OVC012
     FM120100 VRB04KT 3SM -SN OVC020
     FM120600 28010KT 6SM -SHSN BKN025 OVC035
     FM121000 29018G30KT P6SM OVC040=

USA.gov is the U.S. government's official web portal to all federal, state and local government web resources and services.